METAR Data
IDs: Format: Raw Decoded Include TAF

Data at: 1341 UTC 07 Jul 2020

METAR for:KCJR (Culpeper Rgnl, VA, US)
Text:KCJR 071315Z AUTO 00000KT 10SM OVC010 24/22 A3007 RMK AO2 T02440215
Temperature: 24.4°C ( 76°F)
Dewpoint: 21.5°C ( 71°F) [RH = 84%]
Pressure (altimeter):30.07 inches Hg (1018.4 mb)
Winds:calm
Visibility:10 or more sm (16+ km)
Ceiling:1000 feet AGL
Clouds: overcast cloud deck at 1000 feet AGL
QC Flag:automated observation with no human augmentation